Time;durP1;ratioP1;P1;durP2;ratioP2;P2;SDS_P1;SDS_P2;PMS_P1;PMS_P2;Temp;Humidity;BMP_temperature;BMP_pressure;BME280_temperature;BME280_humidity;BME280_pressure;Samples;Min_cycle;Max_cycle;Signal;HPM_P1;HPM_P2
2021/08/05 00:01:04;;;;;;;3.90;2.42;;;;;;;;;;4972447;28;20023;-67
2021/08/05 00:03:29;;;;;;;5.07;2.90;;;;;;;;;;4972200;28;20041;-67
2021/08/05 00:05:55;;;;;;;3.92;2.50;;;;;;;;;;4972168;28;20576;-67
2021/08/05 00:08:20;;;;;;;5.22;2.33;;;;;;;;;;4972148;28;20122;-68
2021/08/05 00:10:45;;;;;;;4.57;2.33;;;;;;;;;;4972208;28;20226;-67
2021/08/05 00:13:10;;;;;;;7.63;2.60;;;;;;;;;;4965646;28;20062;-68
2021/08/05 00:15:36;;;;;;;4.97;2.73;;;;;;;;;;4972023;28;20102;-67
2021/08/05 00:18:01;;;;;;;4.97;3.10;;;;;;;;;;4971691;28;20337;-67
2021/08/05 00:20:26;;;;;;;4.50;2.55;;;;;;;;;;4970546;28;20154;-66
2021/08/05 00:22:51;;;;;;;4.85;2.67;;;;;;;;;;4986630;28;20037;-67
2021/08/05 00:25:16;;;;;;;5.05;2.50;;;;;;;;;;4975369;28;20014;-67
2021/08/05 00:27:42;;;;;;;5.77;2.70;;;;;;;;;;4974166;28;20034;-67
2021/08/05 00:30:07;;;;;;;3.97;2.38;;;;;;;;;;4971954;28;20246;-67
2021/08/05 00:32:32;;;;;;;4.68;2.60;;;;;;;;;;4971523;28;20406;-67
2021/08/05 00:34:58;;;;;;;4.88;2.45;;;;;;;;;;4971552;28;20028;-68
2021/08/05 00:37:23;;;;;;;3.17;2.00;;;;;;;;;;4971514;28;20910;-68
2021/08/05 00:39:48;;;;;;;5.13;2.50;;;;;;;;;;4971822;28;20023;-67
2021/08/05 00:42:13;;;;;;;3.70;2.27;;;;;;;;;;4971411;28;20267;-67
2021/08/05 00:44:38;;;;;;;4.18;2.30;;;;;;;;;;4966775;28;20670;-67
2021/08/05 00:47:04;;;;;;;5.18;2.10;;;;;;;;;;4970473;28;20471;-68
2021/08/05 00:49:29;;;;;;;3.80;1.92;;;;;;;;;;4971582;28;20050;-67
2021/08/05 00:51:55;;;;;;;3.28;1.90;;;;;;;;;;4971166;28;20026;-67
2021/08/05 00:54:20;;;;;;;3.55;1.50;;;;;;;;;;4971694;28;20019;-67
2021/08/05 00:56:45;;;;;;;3.95;2.20;;;;;;;;;;4973751;28;20298;-67
2021/08/05 00:59:10;;;;;;;3.88;2.25;;;;;;;;;;4971104;28;20030;-66
2021/08/05 01:01:41;;;;;;;3.47;2.28;;;;;;;;;;4970956;28;20494;-67
2021/08/05 01:04:08;;;;;;;5.50;2.70;;;;;;;;;;4971329;28;20050;-67
2021/08/05 01:06:33;;;;;;;5.07;2.47;;;;;;;;;;4969828;28;20022;-67
2021/08/05 01:09:03;;;;;;;4.50;2.38;;;;;;;;;;4970717;28;20513;-67
2021/08/05 01:11:30;;;;;;;4.35;2.40;;;;;;;;;;4970785;28;20547;-67
2021/08/05 01:13:59;;;;;;;4.47;2.28;;;;;;;;;;4985237;28;20398;-67
2021/08/05 01:16:26;;;;;;;5.13;2.55;;;;;;;;;;4970463;28;20093;-67
2021/08/05 01:18:55;;;;;;;4.78;2.50;;;;;;;;;;4970569;28;20502;-67
2021/08/05 01:21:34;;;;;;;4.90;2.65;;;;;;;;;;4970737;28;20081;-67
2021/08/05 01:24:03;;;;;;;4.82;2.45;;;;;;;;;;4970658;28;20042;-67
2021/08/05 01:26:47;;;;;;;4.40;2.30;;;;;;;;;;4976672;28;20022;-67
2021/08/05 01:29:12;;;;;;;5.68;3.00;;;;;;;;;;4970518;28;20061;-67
2021/08/05 01:31:37;;;;;;;5.25;2.70;;;;;;;;;;4970637;28;20054;-67
2021/08/05 01:34:03;;;;;;;2.70;1.50;;;;;;;;;;4970699;28;20114;-67
2021/08/05 01:36:29;;;;;;;5.63;2.72;;;;;;;;;;4970265;28;20093;-67
2021/08/05 01:38:56;;;;;;;3.20;1.58;;;;;;;;;;4970710;28;20015;-67
2021/08/05 01:41:21;;;;;;;3.70;1.55;;;;;;;;;;4970431;28;20055;-67
2021/08/05 01:43:47;;;;;;;4.18;1.70;;;;;;;;;;4970742;28;20101;-67
2021/08/05 01:46:12;;;;;;;2.83;1.50;;;;;;;;;;4970367;28;20121;-67
2021/08/05 01:48:38;;;;;;;4.88;2.10;;;;;;;;;;4970384;28;20027;-68
2021/08/05 01:51:04;;;;;;;3.78;2.00;;;;;;;;;;4970176;28;20026;-67
2021/08/05 01:53:29;;;;;;;4.32;2.30;;;;;;;;;;4970596;28;20093;-68
2021/08/05 01:55:54;;;;;;;3.15;2.10;;;;;;;;;;4973594;28;20106;-68
2021/08/05 01:58:19;;;;;;;4.13;1.95;;;;;;;;;;4984995;28;20050;-67
2021/08/05 02:00:45;;;;;;;3.30;1.77;;;;;;;;;;4970243;28;20584;-67
2021/08/05 02:03:11;;;;;;;2.05;1.02;;;;;;;;;;4970260;28;20369;-68
2021/08/05 02:05:36;;;;;;;2.42;1.02;;;;;;;;;;4970559;28;20026;-67
2021/08/05 02:08:05;;;;;;;0.90;0.70;;;;;;;;;;4969786;28;20049;-68
2021/08/05 02:10:30;;;;;;;1.35;0.90;;;;;;;;;;4970142;28;20031;-67
2021/08/05 02:13:14;;;;;;;1.20;0.80;;;;;;;;;;4969849;28;20106;-67
2021/08/05 02:15:44;;;;;;;1.85;0.70;;;;;;;;;;4970209;28;20027;-68
2021/08/05 02:18:11;;;;;;;1.63;0.73;;;;;;;;;;4969736;28;20517;-68
2021/08/05 02:20:36;;;;;;;0.75;0.55;;;;;;;;;;4970093;28;20023;-68
2021/08/05 02:23:02;;;;;;;2.30;1.10;;;;;;;;;;4969863;28;20443;-68
2021/08/05 02:25:27;;;;;;;1.23;0.80;;;;;;;;;;4969993;28;20054;-67
2021/08/05 02:27:53;;;;;;;1.48;0.80;;;;;;;;;;4970278;28;20022;-67
2021/08/05 02:30:18;;;;;;;1.55;0.80;;;;;;;;;;4969864;28;20366;-67
2021/08/05 02:32:44;;;;;;;1.52;0.88;;;;;;;;;;4969585;28;20030;-68
2021/08/05 02:35:10;;;;;;;1.33;0.82;;;;;;;;;;4969531;28;20463;-67
2021/08/05 02:37:36;;;;;;;1.23;0.60;;;;;;;;;;4969685;28;20034;-66
2021/08/05 02:40:02;;;;;;;1.38;0.77;;;;;;;;;;4969493;28;20414;-67
2021/08/05 02:42:28;;;;;;;1.38;0.90;;;;;;;;;;4969360;28;20023;-67
2021/08/05 02:44:55;;;;;;;1.42;0.80;;;;;;;;;;4969767;28;20018;-68
2021/08/05 02:47:20;;;;;;;3.03;1.00;;;;;;;;;;4969595;28;20082;-66
2021/08/05 02:49:46;;;;;;;1.13;0.90;;;;;;;;;;4969902;28;20050;-68
2021/08/05 02:52:11;;;;;;;1.20;0.80;;;;;;;;;;4969355;28;20471;-67
2021/08/05 02:54:36;;;;;;;2.25;1.00;;;;;;;;;;4969608;28;20099;-68
2021/08/05 02:57:01;;;;;;;1.52;0.98;;;;;;;;;;4973098;28;20045;-67
2021/08/05 02:59:27;;;;;;;1.83;1.08;;;;;;;;;;4969392;28;20029;-67
2021/08/05 03:01:53;;;;;;;4.07;0.93;;;;;;;;;;4969524;28;20046;-68
2021/08/05 03:04:18;;;;;;;2.85;1.20;;;;;;;;;;4969277;28;20134;-68
2021/08/05 03:06:45;;;;;;;2.50;1.20;;;;;;;;;;4969785;28;20109;-68
2021/08/05 03:09:10;;;;;;;2.45;1.05;;;;;;;;;;4969460;28;20027;-68
2021/08/05 03:11:35;;;;;;;1.83;0.98;;;;;;;;;;4972939;28;20352;-68
2021/08/05 03:14:00;;;;;;;2.63;1.37;;;;;;;;;;4972932;28;20102;-68
2021/08/05 03:16:25;;;;;;;2.70;1.55;;;;;;;;;;4973422;28;20758;-68
2021/08/05 03:18:50;;;;;;;2.70;1.40;;;;;;;;;;4973084;28;20027;-68
2021/08/05 03:21:16;;;;;;;2.08;1.40;;;;;;;;;;4973198;28;20442;-68
2021/08/05 03:23:41;;;;;;;2.30;1.40;;;;;;;;;;4972929;28;20034;-68
2021/08/05 03:26:06;;;;;;;2.22;1.35;;;;;;;;;;4973688;28;20338;-68
2021/08/05 03:28:31;;;;;;;2.83;1.35;;;;;;;;;;4973096;28;20483;-68
2021/08/05 03:30:57;;;;;;;4.15;1.95;;;;;;;;;;4972849;28;20023;-68
2021/08/05 03:33:22;;;;;;;4.72;2.00;;;;;;;;;;4972442;28;20010;-67
2021/08/05 03:35:47;;;;;;;3.58;2.03;;;;;;;;;;4972821;28;20019;-68
2021/08/05 03:38:12;;;;;;;5.35;2.50;;;;;;;;;;4972568;28;20085;-67
2021/08/05 03:40:37;;;;;;;6.30;2.83;;;;;;;;;;4973028;28;20265;-67
2021/08/05 03:43:03;;;;;;;6.35;2.90;;;;;;;;;;4972248;28;20286;-67
2021/08/05 03:45:28;;;;;;;4.45;2.40;;;;;;;;;;4972735;28;20356;-68
2021/08/05 03:47:53;;;;;;;5.78;2.83;;;;;;;;;;4966326;28;20022;-68
2021/08/05 03:50:18;;;;;;;4.65;2.58;;;;;;;;;;4972431;28;20065;-67
2021/08/05 03:52:43;;;;;;;5.72;3.03;;;;;;;;;;4972426;28;20482;-67
2021/08/05 03:55:13;;;;;;;7.13;3.17;;;;;;;;;;4975238;28;20042;-68
2021/08/05 03:57:38;;;;;;;4.63;2.60;;;;;;;;;;4973650;28;20385;-67
2021/08/05 04:00:04;;;;;;;6.78;3.00;;;;;;;;;;4972383;28;20102;-67
2021/08/05 04:02:29;;;;;;;6.45;3.00;;;;;;;;;;4972279;28;20217;-67
2021/08/05 04:04:54;;;;;;;4.95;2.80;;;;;;;;;;4972139;28;20078;-67
2021/08/05 04:07:19;;;;;;;7.67;3.70;;;;;;;;;;4972294;28;20276;-68
2021/08/05 04:09:45;;;;;;;11.38;3.53;;;;;;;;;;4972274;28;20287;-67
2021/08/05 04:12:10;;;;;;;8.32;4.03;;;;;;;;;;4971891;28;20053;-67
2021/08/05 04:14:35;;;;;;;6.93;4.10;;;;;;;;;;4972201;28;20054;-67
2021/08/05 04:17:00;;;;;;;9.43;4.80;;;;;;;;;;4971960;28;20113;-67
2021/08/05 04:19:26;;;;;;;11.27;5.13;;;;;;;;;;4971838;28;20035;-67
2021/08/05 04:21:52;;;;;;;10.82;5.07;;;;;;;;;;4970720;28;20026;-66
2021/08/05 04:24:17;;;;;;;7.85;4.65;;;;;;;;;;4971997;28;20019;-66
2021/08/05 04:26:42;;;;;;;9.50;4.72;;;;;;;;;;4971833;28;20026;-67
2021/08/05 04:29:07;;;;;;;10.17;5.17;;;;;;;;;;4971838;28;20485;-67
2021/08/05 04:31:32;;;;;;;12.32;5.32;;;;;;;;;;4971775;28;20324;-67
2021/08/05 04:33:58;;;;;;;10.38;5.15;;;;;;;;;;4971447;28;20015;-68
2021/08/05 04:36:23;;;;;;;8.05;4.72;;;;;;;;;;4971693;28;20086;-66
2021/08/05 04:38:48;;;;;;;11.02;5.60;;;;;;;;;;4971612;28;20034;-67
2021/08/05 04:41:13;;;;;;;9.48;5.35;;;;;;;;;;4971585;28;20325;-68
2021/08/05 04:43:38;;;;;;;14.30;4.85;;;;;;;;;;4971765;28;20066;-67
2021/08/05 04:46:04;;;;;;;8.25;4.43;;;;;;;;;;4971503;28;20023;-68
2021/08/05 04:48:29;;;;;;;10.85;5.65;;;;;;;;;;4971643;28;20104;-68
2021/08/05 04:50:54;;;;;;;9.40;4.82;;;;;;;;;;4971220;28;20026;-67
2021/08/05 04:53:19;;;;;;;8.73;4.68;;;;;;;;;;4971305;28;20053;-68
2021/08/05 04:55:44;;;;;;;9.25;4.65;;;;;;;;;;4975601;28;20042;-68
2021/08/05 04:58:10;;;;;;;8.60;4.75;;;;;;;;;;4971080;28;20149;-68
2021/08/05 05:00:39;;;;;;;8.90;4.32;;;;;;;;;;4971219;28;20027;-68
2021/08/05 05:03:04;;;;;;;9.60;4.25;;;;;;;;;;4971448;28;20019;-67
2021/08/05 05:05:31;;;;;;;6.07;3.75;;;;;;;;;;4970987;28;20026;-67
2021/08/05 05:08:10;;;;;;;6.88;3.55;;;;;;;;;;4971075;28;20455;-69
2021/08/05 05:10:35;;;;;;;6.28;3.42;;;;;;;;;;4971530;28;20022;-68
2021/08/05 05:13:00;;;;;;;5.35;3.50;;;;;;;;;;4971272;28;20030;-68
2021/08/05 05:15:25;;;;;;;6.80;3.87;;;;;;;;;;4971115;28;20027;-68
2021/08/05 05:17:52;;;;;;;7.50;3.70;;;;;;;;;;4971254;28;20290;-67
2021/08/05 05:20:17;;;;;;;7.20;3.25;;;;;;;;;;4970901;28;20050;-69
2021/08/05 05:22:42;;;;;;;5.47;3.27;;;;;;;;;;4971080;28;20042;-68
2021/08/05 05:25:09;;;;;;;7.07;3.13;;;;;;;;;;4972378;28;20267;-68
2021/08/05 05:27:34;;;;;;;5.63;2.95;;;;;;;;;;4971047;28;20258;-68
2021/08/05 05:30:01;;;;;;;7.10;3.35;;;;;;;;;;4970892;28;20467;-68
2021/08/05 05:32:26;;;;;;;7.57;3.78;;;;;;;;;;4968955;28;20224;-67
2021/08/05 05:34:52;;;;;;;5.82;3.10;;;;;;;;;;4971291;28;20110;-68
2021/08/05 05:37:18;;;;;;;5.38;2.92;;;;;;;;;;4964266;28;20042;-68
2021/08/05 05:39:44;;;;;;;5.93;2.75;;;;;;;;;;4970852;28;20015;-67
2021/08/05 05:42:09;;;;;;;4.57;2.78;;;;;;;;;;4970557;28;20142;-68
2021/08/05 05:44:34;;;;;;;6.13;2.92;;;;;;;;;;4970833;28;20043;-67
2021/08/05 05:46:59;;;;;;;5.18;3.45;;;;;;;;;;4970460;28;20093;-68
2021/08/05 05:49:24;;;;;;;6.28;3.03;;;;;;;;;;4971041;28;20494;-68
2021/08/05 05:51:50;;;;;;;4.57;3.17;;;;;;;;;;4970668;28;20114;-67
2021/08/05 05:54:15;;;;;;;4.30;2.67;;;;;;;;;;4969105;28;20062;-68
2021/08/05 05:56:40;;;;;;;6.03;3.20;;;;;;;;;;4970207;28;20775;-68
2021/08/05 05:59:05;;;;;;;5.47;3.08;;;;;;;;;;4970570;28;20022;-68
2021/08/05 06:01:30;;;;;;;5.07;3.00;;;;;;;;;;4970330;28;20038;-68
2021/08/05 06:03:55;;;;;;;7.20;3.38;;;;;;;;;;4970834;28;20019;-68
2021/08/05 06:06:21;;;;;;;5.45;2.80;;;;;;;;;;4970307;28;20023;-67
2021/08/05 06:08:46;;;;;;;5.55;3.35;;;;;;;;;;4970451;28;20109;-68
2021/08/05 06:11:11;;;;;;;6.72;2.58;;;;;;;;;;4970065;28;20027;-68
2021/08/05 06:13:36;;;;;;;8.57;3.90;;;;;;;;;;4970186;28;20015;-68
2021/08/05 06:16:01;;;;;;;5.32;2.90;;;;;;;;;;4970157;28;20062;-68
2021/08/05 06:18:26;;;;;;;4.97;3.10;;;;;;;;;;4970453;28;20038;-68
2021/08/05 06:20:52;;;;;;;5.35;3.20;;;;;;;;;;4970146;28;20738;-67
2021/08/05 06:23:17;;;;;;;5.28;3.17;;;;;;;;;;4970202;28;20082;-67
2021/08/05 06:25:42;;;;;;;5.78;3.08;;;;;;;;;;4971680;28;20018;-67
2021/08/05 06:28:07;;;;;;;5.18;3.25;;;;;;;;;;4970021;28;20092;-68
2021/08/05 06:30:33;;;;;;;5.55;3.00;;;;;;;;;;4970444;28;20026;-68
2021/08/05 06:32:58;;;;;;;7.20;3.15;;;;;;;;;;4970058;28;20022;-67
2021/08/05 06:35:23;;;;;;;5.57;3.20;;;;;;;;;;4970112;28;20122;-69
2021/08/05 06:37:49;;;;;;;4.93;3.10;;;;;;;;;;4970043;28;20034;-67
2021/08/05 06:40:14;;;;;;;5.63;3.30;;;;;;;;;;4969847;28;20073;-67
2021/08/05 06:42:40;;;;;;;6.90;3.38;;;;;;;;;;4970238;28;20174;-68
2021/08/05 06:45:05;;;;;;;4.95;3.13;;;;;;;;;;4972292;28;20022;-68
2021/08/05 06:47:31;;;;;;;6.50;3.50;;;;;;;;;;4974533;28;20513;-68
2021/08/05 06:49:56;;;;;;;6.22;3.45;;;;;;;;;;4974041;28;20097;-69
2021/08/05 06:52:22;;;;;;;6.57;3.50;;;;;;;;;;4973973;28;20042;-68
2021/08/05 06:54:47;;;;;;;5.43;3.45;;;;;;;;;;4974105;28;20027;-68
2021/08/05 06:57:12;;;;;;;6.20;3.30;;;;;;;;;;4978416;28;20455;-66
2021/08/05 06:59:38;;;;;;;7.25;3.05;;;;;;;;;;4973902;28;20137;-68
2021/08/05 07:02:03;;;;;;;6.45;3.25;;;;;;;;;;4973457;28;20106;-69
2021/08/05 07:04:28;;;;;;;5.07;3.00;;;;;;;;;;4973576;28;20382;-67
2021/08/05 07:06:53;;;;;;;5.47;3.10;;;;;;;;;;4973701;28;20023;-69
2021/08/05 07:09:18;;;;;;;4.93;2.63;;;;;;;;;;4973726;28;20054;-68
2021/08/05 07:11:43;;;;;;;5.07;3.17;;;;;;;;;;4988341;28;20434;-67
2021/08/05 07:14:09;;;;;;;4.50;2.57;;;;;;;;;;4973702;28;20257;-68
2021/08/05 07:16:34;;;;;;;5.10;2.72;;;;;;;;;;4973388;28;20274;-67
2021/08/05 07:18:59;;;;;;;4.03;2.30;;;;;;;;;;4973638;28;20390;-68
2021/08/05 07:21:24;;;;;;;4.57;2.70;;;;;;;;;;4973424;28;20447;-68
2021/08/05 07:23:49;;;;;;;5.47;2.60;;;;;;;;;;4973019;28;20266;-68
2021/08/05 07:26:15;;;;;;;4.78;2.50;;;;;;;;;;4975007;28;20054;-68
2021/08/05 07:28:40;;;;;;;4.90;1.83;;;;;;;;;;4973122;28;20058;-68
2021/08/05 07:31:05;;;;;;;3.47;2.28;;;;;;;;;;4973340;28;20250;-68
2021/08/05 07:33:30;;;;;;;5.38;2.80;;;;;;;;;;4972772;28;20026;-68
2021/08/05 07:35:56;;;;;;;3.90;2.40;;;;;;;;;;4972857;28;20023;-68
2021/08/05 07:38:23;;;;;;;5.85;3.00;;;;;;;;;;4972655;28;20041;-68
2021/08/05 07:40:48;;;;;;;7.10;3.30;;;;;;;;;;4973430;28;20029;-67
2021/08/05 07:43:13;;;;;;;4.53;2.58;;;;;;;;;;4972417;28;20308;-68
2021/08/05 07:45:38;;;;;;;5.20;2.80;;;;;;;;;;4973283;28;20498;-68
2021/08/05 07:48:03;;;;;;;4.97;2.85;;;;;;;;;;4972354;28;20031;-68
2021/08/05 07:50:29;;;;;;;6.85;2.95;;;;;;;;;;4958997;28;20387;-68
2021/08/05 07:52:54;;;;;;;6.68;3.22;;;;;;;;;;4972034;28;20034;-68
2021/08/05 07:55:19;;;;;;;5.47;3.33;;;;;;;;;;4976490;28;20033;-68
2021/08/05 07:57:45;;;;;;;4.28;2.60;;;;;;;;;;4972461;28;20050;-69
2021/08/05 08:00:10;;;;;;;6.28;3.15;;;;;;;;;;4973009;28;20067;-68
2021/08/05 08:02:35;;;;;;;6.25;3.42;;;;;;;;;;4972436;28;20478;-68
2021/08/05 08:05:01;;;;;;;6.30;3.33;;;;;;;;;;4972826;28;20597;-68
2021/08/05 08:07:26;;;;;;;8.98;3.60;;;;;;;;;;4972614;28;20142;-68
2021/08/05 08:09:51;;;;;;;6.82;3.28;;;;;;;;;;4972760;28;20371;-68
2021/08/05 08:12:16;;;;;;;6.97;3.78;;;;;;;;;;4972690;28;20035;-68
2021/08/05 08:14:42;;;;;;;8.52;4.30;;;;;;;;;;4972392;28;20021;-68
2021/08/05 08:17:07;;;;;;;5.82;3.40;;;;;;;;;;4972032;28;20026;-69
2021/08/05 08:19:32;;;;;;;8.50;3.97;;;;;;;;;;4972115;28;20026;-69
2021/08/05 08:22:00;;;;;;;8.13;4.10;;;;;;;;;;4972006;28;20471;-68
2021/08/05 08:24:25;;;;;;;7.13;3.58;;;;;;;;;;4972139;28;20018;-67
2021/08/05 08:26:50;;;;;;;6.63;3.70;;;;;;;;;;4974694;28;20022;-69
2021/08/05 08:29:16;;;;;;;6.37;4.10;;;;;;;;;;4971836;28;20368;-68
2021/08/05 08:31:43;;;;;;;7.47;3.47;;;;;;;;;;4972134;28;20269;-68
2021/08/05 08:34:08;;;;;;;6.20;3.40;;;;;;;;;;4971670;28;20109;-68
2021/08/05 08:36:33;;;;;;;7.95;3.67;;;;;;;;;;4972145;28;20543;-68
2021/08/05 08:38:59;;;;;;;8.32;4.25;;;;;;;;;;4971765;28;20027;-68
2021/08/05 08:41:24;;;;;;;6.30;3.30;;;;;;;;;;4972080;28;20065;-68
2021/08/05 08:43:49;;;;;;;10.77;3.92;;;;;;;;;;4972138;28;20063;-68
2021/08/05 08:46:20;;;;;;;6.93;4.00;;;;;;;;;;4971881;28;20102;-68
2021/08/05 08:48:45;;;;;;;8.70;4.10;;;;;;;;;;4971865;28;20038;-68
2021/08/05 08:51:11;;;;;;;7.68;4.40;;;;;;;;;;4971512;28;20015;-68
2021/08/05 08:53:37;;;;;;;8.68;4.90;;;;;;;;;;4971892;28;20490;-67
2021/08/05 08:56:04;;;;;;;8.95;4.28;;;;;;;;;;4977507;28;20030;-68
2021/08/05 08:58:29;;;;;;;9.82;4.47;;;;;;;;;;4971220;28;20026;-69
2021/08/05 09:00:54;;;;;;;7.47;4.30;;;;;;;;;;4971123;28;20082;-68
2021/08/05 09:03:20;;;;;;;8.85;4.43;;;;;;;;;;4971220;28;20490;-68
2021/08/05 09:05:46;;;;;;;6.60;4.20;;;;;;;;;;4971407;28;20022;-67
2021/08/05 09:08:12;;;;;;;9.20;5.28;;;;;;;;;;4970212;28;20445;-68
2021/08/05 09:10:37;;;;;;;7.90;3.63;;;;;;;;;;4971323;28;20023;-68
2021/08/05 09:13:02;;;;;;;7.57;4.10;;;;;;;;;;4970937;28;20702;-68
2021/08/05 09:15:47;;;;;;;6.35;4.00;;;;;;;;;;4971532;28;20050;-70
2021/08/05 09:18:32;;;;;;;6.53;3.55;;;;;;;;;;4970807;28;20066;-67
2021/08/05 09:21:16;;;;;;;7.70;3.53;;;;;;;;;;4971116;28;20034;-68
2021/08/05 09:23:50;;;;;;;8.23;3.88;;;;;;;;;;4971080;28;20086;-67
2021/08/05 09:26:50;;;;;;;6.28;3.90;;;;;;;;;;4980323;28;20018;-68
2021/08/05 09:29:16;;;;;;;7.18;3.30;;;;;;;;;;4955561;28;20035;-68
2021/08/05 09:31:44;;;;;;;6.55;3.65;;;;;;;;;;4949295;28;20162;-68
2021/08/05 09:34:11;;;;;;;6.25;3.42;;;;;;;;;;4949107;28;20340;-68
2021/08/05 09:36:37;;;;;;;5.47;3.22;;;;;;;;;;4967269;28;20059;-67
2021/08/05 09:39:20;;;;;;;5.50;3.13;;;;;;;;;;4949673;28;20094;-68
2021/08/05 09:41:58;;;;;;;5.78;3.60;;;;;;;;;;4967917;28;20042;-67
2021/08/05 09:44:24;;;;;;;6.50;3.25;;;;;;;;;;4958942;28;20055;-68
2021/08/05 09:46:59;;;;;;;6.00;3.55;;;;;;;;;;4957127;28;20023;-67
2021/08/05 09:49:26;;;;;;;4.47;2.90;;;;;;;;;;4967437;28;20031;-68
2021/08/05 09:51:55;;;;;;;5.82;3.20;;;;;;;;;;4967564;28;20043;-67
2021/08/05 09:54:20;;;;;;;4.38;2.70;;;;;;;;;;4967408;28;20034;-68
2021/08/05 09:56:53;;;;;;;6.33;3.10;;;;;;;;;;4971790;28;20195;-68
2021/08/05 09:59:18;;;;;;;5.30;2.47;;;;;;;;;;4964429;28;20270;-68
2021/08/05 10:01:56;;;;;;;4.78;2.83;;;;;;;;;;4967206;28;20530;-67
2021/08/05 10:04:22;;;;;;;8.32;2.28;;;;;;;;;;4962228;28;20669;-67
2021/08/05 10:06:56;;;;;;;5.60;2.70;;;;;;;;;;4970208;28;20022;-67
2021/08/05 10:09:21;;;;;;;5.57;3.42;;;;;;;;;;4970007;28;20023;-67
2021/08/05 10:11:47;;;;;;;4.40;2.57;;;;;;;;;;4970476;28;20022;-67
2021/08/05 10:14:19;;;;;;;4.07;2.70;;;;;;;;;;4970105;28;20630;-67
2021/08/05 10:16:44;;;;;;;4.40;2.65;;;;;;;;;;4970354;28;20379;-68
2021/08/05 10:19:09;;;;;;;3.92;2.55;;;;;;;;;;4970323;28;20032;-67
2021/08/05 10:21:37;;;;;;;5.78;2.63;;;;;;;;;;4970041;28;20069;-67
2021/08/05 10:24:02;;;;;;;4.78;3.30;;;;;;;;;;4970227;28;20101;-67
2021/08/05 10:26:28;;;;;;;6.45;3.20;;;;;;;;;;4973248;28;20435;-68
2021/08/05 10:28:53;;;;;;;4.80;3.10;;;;;;;;;;4970260;28;20030;-67
2021/08/05 10:31:19;;;;;;;5.65;3.03;;;;;;;;;;4969945;28;20023;-67
2021/08/05 10:33:46;;;;;;;6.00;3.17;;;;;;;;;;4969788;28;20023;-67
2021/08/05 10:36:11;;;;;;;6.05;2.67;;;;;;;;;;4970054;28;20041;-68
2021/08/05 10:38:36;;;;;;;5.15;2.75;;;;;;;;;;4969916;28;20042;-68
2021/08/05 10:41:02;;;;;;;4.88;3.05;;;;;;;;;;4969879;28;20070;-67
2021/08/05 10:43:28;;;;;;;5.85;2.90;;;;;;;;;;4969722;28;20089;-68
2021/08/05 10:45:53;;;;;;;4.75;2.70;;;;;;;;;;4969928;28;20031;-68
2021/08/05 10:48:18;;;;;;;3.85;2.53;;;;;;;;;;4969915;28;20026;-68
2021/08/05 10:50:45;;;;;;;5.30;2.72;;;;;;;;;;4969982;28;20035;-68
2021/08/05 10:53:30;;;;;;;5.30;3.22;;;;;;;;;;4969928;28;20093;-68
2021/08/05 10:56:15;;;;;;;3.65;2.53;;;;;;;;;;4969789;28;20082;-67
2021/08/05 10:59:00;;;;;;;5.15;2.72;;;;;;;;;;4969752;28;20061;-68
2021/08/05 11:01:47;;;;;;;6.18;2.90;;;;;;;;;;4969941;28;20027;-67
2021/08/05 11:04:31;;;;;;;4.78;2.38;;;;;;;;;;4969572;28;20027;-68
2021/08/05 11:06:56;;;;;;;4.82;2.50;;;;;;;;;;4969933;28;20497;-67
2021/08/05 11:09:25;;;;;;;4.93;2.63;;;;;;;;;;4969647;28;20109;-68
2021/08/05 11:11:50;;;;;;;4.80;2.67;;;;;;;;;;4969731;28;20267;-67
2021/08/05 11:14:16;;;;;;;6.55;2.60;;;;;;;;;;4969655;28;20470;-66
2021/08/05 11:16:53;;;;;;;5.13;2.40;;;;;;;;;;4969823;28;20463;-68
2021/08/05 11:19:26;;;;;;;5.97;2.25;;;;;;;;;;4969764;28;20354;-68
2021/08/05 11:21:52;;;;;;;4.55;2.67;;;;;;;;;;4969852;28;20479;-68
2021/08/05 11:24:35;;;;;;;2.75;1.98;;;;;;;;;;4969754;28;20046;-67
2021/08/05 11:27:09;;;;;;;4.15;2.45;;;;;;;;;;4973112;28;20042;-67
2021/08/05 11:29:34;;;;;;;4.03;2.20;;;;;;;;;;4969971;28;20018;-68
2021/08/05 11:32:20;;;;;;;3.80;1.98;;;;;;;;;;4972098;28;20481;-68
2021/08/05 11:34:51;;;;;;;4.50;2.00;;;;;;;;;;4973483;28;20022;-67
2021/08/05 11:37:17;;;;;;;2.92;1.70;;;;;;;;;;4973018;28;20030;-67
2021/08/05 11:39:50;;;;;;;5.25;2.25;;;;;;;;;;4972802;28;20174;-67
2021/08/05 11:42:16;;;;;;;4.30;2.17;;;;;;;;;;4972736;28;20479;-67
2021/08/05 11:44:46;;;;;;;5.00;2.28;;;;;;;;;;4973308;28;20418;-67
2021/08/05 11:47:13;;;;;;;3.80;1.90;;;;;;;;;;4972915;28;20038;-68
2021/08/05 11:49:53;;;;;;;3.20;2.00;;;;;;;;;;4972929;28;20059;-67
2021/08/05 11:52:22;;;;;;;4.47;2.28;;;;;;;;;;4972965;28;20027;-67
2021/08/05 11:54:48;;;;;;;;;;;;;;;;;;4973232;28;20034;-67
2021/08/05 11:57:14;;;;;;;2.88;1.90;;;;;;;;;;4973131;28;19914;-67
2021/08/05 11:59:40;;;;;;;2.50;1.80;;;;;;;;;;4972838;28;20154;-67
2021/08/05 12:02:10;;;;;;;3.35;2.05;;;;;;;;;;4972981;28;20046;-67
2021/08/05 12:04:36;;;;;;;4.20;1.98;;;;;;;;;;4972518;28;20022;-67
2021/08/05 12:07:17;;;;;;;2.90;1.67;;;;;;;;;;4972332;28;20093;-67
2021/08/05 12:09:42;;;;;;;4.22;1.98;;;;;;;;;;4958137;28;20423;-66
2021/08/05 12:12:08;;;;;;;3.17;1.80;;;;;;;;;;4972318;28;20026;-66
2021/08/05 12:14:33;;;;;;;3.28;2.00;;;;;;;;;;4972223;28;20018;-67
2021/08/05 12:16:58;;;;;;;2.95;1.75;;;;;;;;;;4972402;28;20546;-66
2021/08/05 12:19:23;;;;;;;2.83;1.83;;;;;;;;;;4972472;28;20304;-68
2021/08/05 12:21:49;;;;;;;5.22;1.60;;;;;;;;;;4966535;28;20557;-67
2021/08/05 12:24:14;;;;;;;3.70;1.67;;;;;;;;;;4972142;28;20027;-67
2021/08/05 12:26:39;;;;;;;2.22;1.50;;;;;;;;;;4976241;28;20402;-67
2021/08/05 12:29:08;;;;;;;2.50;1.40;;;;;;;;;;4972135;28;20399;-67
2021/08/05 12:31:34;;;;;;;3.90;1.87;;;;;;;;;;4972015;28;20033;-68
2021/08/05 12:33:59;;;;;;;3.13;1.40;;;;;;;;;;4971819;28;21099;-67
2021/08/05 12:36:24;;;;;;;3.10;1.40;;;;;;;;;;4972257;28;20263;-67
2021/08/05 12:38:53;;;;;;;2.67;1.27;;;;;;;;;;4971686;28;21072;-68
2021/08/05 12:41:23;;;;;;;5.47;1.30;;;;;;;;;;4971795;28;20070;-67
2021/08/05 12:43:49;;;;;;;1.65;1.17;;;;;;;;;;4970994;28;20462;-66
2021/08/05 12:46:14;;;;;;;2.00;1.10;;;;;;;;;;4971787;28;20062;-67
2021/08/05 12:48:40;;;;;;;1.42;1.00;;;;;;;;;;4966513;28;20115;-67
2021/08/05 12:51:06;;;;;;;2.50;1.13;;;;;;;;;;4971634;28;20498;-67
2021/08/05 12:53:34;;;;;;;1.48;0.98;;;;;;;;;;4971946;28;20034;-67
2021/08/05 12:56:00;;;;;;;1.80;1.00;;;;;;;;;;4971429;28;20027;-67
2021/08/05 12:58:26;;;;;;;1.63;0.90;;;;;;;;;;4971773;28;20137;-67
2021/08/05 13:00:51;;;;;;;1.77;1.02;;;;;;;;;;4971850;28;20029;-67
2021/08/05 13:03:17;;;;;;;1.50;0.90;;;;;;;;;;4971479;28;20106;-66
2021/08/05 13:05:55;;;;;;;1.45;0.98;;;;;;;;;;4971463;28;20014;-67
2021/08/05 13:08:31;;;;;;;2.20;1.00;;;;;;;;;;4971316;28;20018;-66
2021/08/05 13:10:56;;;;;;;2.75;1.23;;;;;;;;;;4971453;28;20122;-67
2021/08/05 13:13:40;;;;;;;1.02;0.90;;;;;;;;;;4971498;28;20098;-67
2021/08/05 13:16:15;;;;;;;1.05;0.85;;;;;;;;;;4970964;28;20058;-67
2021/08/05 13:18:40;;;;;;;1.67;0.93;;;;;;;;;;4971340;28;20052;-66
2021/08/05 13:21:09;;;;;;;1.10;0.63;;;;;;;;;;4971209;28;20383;-66
2021/08/05 13:23:34;;;;;;;2.30;0.80;;;;;;;;;;4971219;28;20356;-68
2021/08/05 13:26:00;;;;;;;1.93;0.90;;;;;;;;;;4971144;28;20031;-67
2021/08/05 13:28:27;;;;;;;1.65;0.80;;;;;;;;;;4971098;28;20313;-67
2021/08/05 13:31:13;;;;;;;1.05;0.60;;;;;;;;;;4970783;28;20097;-67
2021/08/05 13:33:38;;;;;;;1.95;1.02;;;;;;;;;;4970864;28;20053;-69
2021/08/05 13:36:03;;;;;;;1.50;0.85;;;;;;;;;;4970395;28;20031;-67
2021/08/05 13:38:43;;;;;;;1.48;0.90;;;;;;;;;;4970915;28;20031;-67
2021/08/05 13:41:08;;;;;;;0.98;0.70;;;;;;;;;;4970585;28;20026;-67
2021/08/05 13:43:34;;;;;;;1.03;0.83;;;;;;;;;;4970757;28;20053;-67
2021/08/05 13:45:59;;;;;;;0.97;0.67;;;;;;;;;;4970452;28;20262;-66
2021/08/05 13:48:28;;;;;;;2.70;1.10;;;;;;;;;;4970724;28;20269;-67
2021/08/05 13:50:54;;;;;;;2.65;0.80;;;;;;;;;;4970359;28;20265;-67
2021/08/05 13:53:19;;;;;;;1.50;0.80;;;;;;;;;;4969820;28;20039;-67
2021/08/05 13:55:44;;;;;;;2.33;0.80;;;;;;;;;;4971952;28;20066;-67
2021/08/05 13:58:11;;;;;;;1.05;0.80;;;;;;;;;;4969503;28;20317;-66
2021/08/05 14:00:37;;;;;;;1.05;0.88;;;;;;;;;;4970298;28;20103;-68
2021/08/05 14:03:02;;;;;;;0.73;0.70;;;;;;;;;;4969878;28;20467;-67
2021/08/05 14:05:28;;;;;;;1.30;0.70;;;;;;;;;;4970117;28;20027;-67
2021/08/05 14:07:53;;;;;;;1.53;0.63;;;;;;;;;;4970055;28;20114;-67
2021/08/05 14:10:19;;;;;;;1.15;0.80;;;;;;;;;;4970198;28;20686;-67
2021/08/05 14:12:45;;;;;;;1.10;0.70;;;;;;;;;;4970021;28;20030;-67
2021/08/05 14:15:10;;;;;;;3.45;1.08;;;;;;;;;;4970274;28;20082;-67
2021/08/05 14:17:36;;;;;;;1.55;0.70;;;;;;;;;;4969910;28;20125;-66
2021/08/05 14:20:01;;;;;;;1.20;0.82;;;;;;;;;;4969880;28;20093;-66
2021/08/05 14:22:26;;;;;;;1.38;0.90;;;;;;;;;;4969834;28;20083;-67
2021/08/05 14:24:52;;;;;;;1.83;0.97;;;;;;;;;;4970393;28;20030;-67
2021/08/05 14:27:17;;;;;;;2.13;1.05;;;;;;;;;;4974523;28;20270;-67
2021/08/05 14:29:42;;;;;;;1.20;0.82;;;;;;;;;;4969960;28;20649;-67
2021/08/05 14:32:08;;;;;;;1.10;0.80;;;;;;;;;;4969978;28;20408;-67
2021/08/05 14:34:34;;;;;;;0.98;0.70;;;;;;;;;;4969789;28;20333;-67
2021/08/05 14:36:59;;;;;;;2.00;0.90;;;;;;;;;;4969538;28;20042;-66
2021/08/05 14:39:24;;;;;;;2.45;1.00;;;;;;;;;;4969590;28;20085;-67
2021/08/05 14:41:50;;;;;;;2.03;0.90;;;;;;;;;;4969977;28;20015;-67